Flight Track Log - Related Links

Times and Time Zones

All times are in EDT time to prevent confusion due to time zone crossing. See the N6745M flight status page for this flight to view local times or setup timezone preferences in your user account.

Time Position Orientation Groundspeed Altitude Reporting Facility
EDT Latitude Longitude Course Direction KTS MPH feet Rate Location/Type
Sun 03:05:17 PM 33.2950 -87.6675 303° West 109 125 2,900  Level Memphis Center
Sun 03:07:22 PM 33.3589 -87.7344 319° Northwest 133 153 3,100 83 Climbing Memphis Center
Sun 03:07:41 PM 33.3694 -87.7539 303° West 175 201 3,100 1,258 Level Memphis Center
Sun 03:08:24 PM 33.3817 -87.7728 308° West 139 160 4,400 1,377 Climbing Memphis Center
Sun 03:08:42 PM 33.3864 -87.7811 304° West 93 107 4,500 677 Climbing Memphis Center
Sun 03:09:26 PM 33.3989 -87.8011 307° West 117 135 5,100 700 Climbing Memphis Center
Sun 03:09:42 PM 33.4053 -87.8108 308° West 108 124 5,200 677 Climbing Memphis Center
Sun 03:10:00 PM 33.3660 -87.7364 304° West  Level FlightAware Approximate
Sun 03:10:28 PM 33.4153 -87.8308 301° West 110 127 5,800  Level Memphis Center
Sun 03:10:43 PM 33.4200 -87.8433 294° West 107 123 6,000 290 Climbing Memphis Center
Sun 03:11:00 PM 33.4015 -87.7862 303° West  Level FlightAware Approximate
Sun 03:11:30 PM 33.4303 -87.8661 298° West 114 131 6,100  Level Memphis Center
Sun 03:11:43 PM 33.4306 -87.8881 271° West 164 189 6,100  Level Memphis Center
Sun 03:12:32 PM 33.4333 -87.9261 275° West 157 181 6,100  Level Memphis Center
Sun 03:12:45 PM 33.4350 -87.9478 275° West 192 221 6,100  Level Memphis Center
Sun 03:13:34 PM 33.4417 -87.9992 279° West 179 206 6,100  Level Memphis Center
Sun 03:13:45 PM 33.4417 -88.0100 270° West 189 217 6,100 833 Level Memphis Center
Sun 03:14:46 PM 33.4439 -88.0672 273° West 152 175 7,100 1,009 Climbing Memphis Center
Sun 03:15:38 PM 33.4489 -88.1050 279° West 153 176 8,000 522 Climbing Memphis Center
Sun 03:16:41 PM 33.4558 -88.1519 280° West 145 167 8,100 48 Climbing Memphis Center
Sun 03:17:42 PM 33.4608 -88.2239 275° West 193 222 8,100  Level Memphis Center
Sun 03:19:43 PM 33.4736 -88.3533 276° West 191 220 8,100  Level Memphis Center
Sun 03:20:49 PM 33.4789 -88.4181 276° West 189 217 8,100  Level Memphis Center
Sun 03:21:51 PM 33.4839 -88.4881 275° West 198 228 8,100  Level Memphis Center
Sun 03:22:51 PM 33.4986 -88.5553 285° West 193 222 8,100  Level Memphis Center
Sun 03:23:52 PM 33.5236 -88.6075 300° West 188 216 8,100  Level Memphis Center
Sun 03:24:53 PM 33.5464 -88.6650 295° West 187 215 8,100  Level Memphis Center
Sun 03:25:53 PM 33.5692 -88.7197 297° West 189 217 8,100  Level Memphis Center
Sun 03:26:54 PM 33.5878 -88.7797 290° West 192 221 8,100  Level Memphis Center
Sun 03:27:55 PM 33.6106 -88.8422 294° West 190 219 8,100  Level Memphis Center
Sun 03:29:02 PM 33.6439 -88.8972 306° West 189 217 8,100  Level Memphis Center
Sun 03:30:08 PM 33.6758 -88.9506 306° West 189 217 8,100  Level Memphis Center
Sun 03:31:10 PM 33.7053 -89.0017 305° West 189 217 8,100  Level Memphis Center
Sun 03:33:14 PM 33.7739 -89.0922 312° West 186 214 8,100 257 Level Memphis Center
Sun 03:34:17 PM 33.8164 -89.1425 316° Northwest 184 212 8,900 624 Climbing Memphis Center
Sun 03:35:19 PM 33.8403 -89.1703 316° Northwest 151 174 9,400 532 Climbing Memphis Center
Sun 03:36:21 PM 33.8778 -89.2089 319° Northwest 146 168 10,000 339 Climbing Memphis Center
Sun 03:37:23 PM 33.9114 -89.2403 322° Northwest 148 170 10,100 48 Climbing Memphis Center
Sun 03:38:25 PM 33.9503 -89.2744 324° Northwest 164 189 10,100  Level Memphis Center
Sun 03:39:27 PM 33.9903 -89.3106 323° Northwest 175 201 10,100  Level Memphis Center
Sun 03:40:29 PM 34.0269 -89.3525 317° Northwest 176 203 10,100  Level Memphis Center
Sun 03:41:31 PM 34.0639 -89.3939 317° Northwest 181 208 10,100  Level Memphis Center
Sun 03:42:34 PM 34.1006 -89.4506 308° West 179 206 10,100 -48 Level Memphis Center
Sun 03:43:36 PM 34.1350 -89.4961 312° West 180 207 10,000  Descending Memphis Center
Sun 03:44:38 PM 34.1581 -89.5500 297° West 180 207 10,100 48 Climbing Memphis Center
Sun 03:45:40 PM 34.1750 -89.6075 290° West 180 207 10,100  Level Memphis Center
Sun 03:46:42 PM 34.1942 -89.6644 292° West 180 207 10,100  Level Memphis Center
Sun 03:47:44 PM 34.2131 -89.7242 291° West 183 211 10,100  Level Memphis Center
Sun 03:49:48 PM 34.2519 -89.8553 290° West 185 213 10,100 32 Level Memphis Center
Sun 03:50:51 PM 34.2764 -89.9056 300° West 186 214 10,200  Climbing Memphis Center
Sun 03:51:53 PM 34.3078 -89.9553 307° West 184 212 10,100 -48 Descending Memphis Center
Sun 03:52:55 PM 34.3300 -90.0119 295° West 184 212 10,100  Level Memphis Center
Sun 03:54:59 PM 34.3681 -90.1444 291° West 190 219 10,100  Level Memphis Center
Sun 03:55:00 PM 34.3689 -90.1336 291° West  Level FlightAware Approximate
Sun 03:56:01 PM 34.3778 -90.2072 281° West 190 219 10,100  Level Memphis Center
Sun 03:57:03 PM 34.3950 -90.2669 289° West 190 219 10,100  Level Memphis Center
Sun 03:58:05 PM 34.4131 -90.3258 290° West 189 217 10,100  Level Memphis Center
Sun 03:59:07 PM 34.4367 -90.3844 296° West 190 219 10,100  Level Memphis Center
Sun 04:00:10 PM 34.4647 -90.4386 302° West 191 220 10,100  Level Memphis Center
Sun 04:01:12 PM 34.4961 -90.5067 299° West 191 220 10,100  Level Memphis Center
Sun 04:02:14 PM 34.5158 -90.5672 292° West 191 220 10,100  Level Memphis Center
Sun 04:03:16 PM 34.5300 -90.6308 285° West 192 221 10,100  Level Memphis Center
Sun 04:04:18 PM 34.5458 -90.6944 287° West 194 223 10,100  Level Memphis Center
Sun 04:06:22 PM 34.5908 -90.8136 295° West 194 223 10,100  Level Memphis Center
Sun 04:08:27 PM 34.6417 -90.9381 296° West 190 219 10,100  Level Memphis Center
Sun 04:09:29 PM 34.6636 -90.9956 295° West 190 219 10,100  Level Memphis Center
Sun 04:10:31 PM 34.6858 -91.0519 296° West 190 219 10,100 -48 Level Memphis Center
Sun 04:11:33 PM 34.7072 -91.1133 293° West 190 219 10,000 -242 Descending Memphis Center
Sun 04:12:35 PM 34.7178 -91.1828 280° West 203 234 9,600 -532 Descending Memphis Center
Sun 04:13:37 PM 34.7472 -91.2578 296° West 202 232 8,900 -642 Descending Memphis Center
Sun 04:15:42 PM 34.7925 -91.3953 292° West 214 246 7,600 -642 Descending Memphis Center
Sun 04:16:44 PM 34.8153 -91.4636 292° West 215 247 6,900 -629 Descending Memphis Center
Sun 04:17:46 PM 34.8408 -91.5297 295° West 215 247 6,300 -429 Descending Memphis Center
Sun 04:18:50 PM 34.8614 -91.6122 287° West 200 230 6,000 -153 Descending Memphis Center
Sun 04:19:44 PM 34.8786 -91.6644 292° West 190 219 6,000 50 Level Memphis Center
Sun 04:20:51 PM 34.9025 -91.7286 294° West 186 214 6,100  Climbing Memphis Center
Sun 04:22:56 PM 34.9483 -91.8422 296° West 188 216 6,000 -32 Descending Memphis Center
Sun 04:23:59 PM 34.9725 -91.8989 298° West 188 216 6,000  Level Memphis Center
Sun 04:24:48 PM 34.9944 -91.9508 297° West 186 214 6,000  Level Memphis Center
Sun 04:25:01 PM 34.9969 -91.9547 308° West 188 216 6,000  Level Memphis Center
Sun 04:25:48 PM 35.0219 -92.0075 300° West 185 213 6,000 97 Level Memphis Center
Sun 04:26:03 PM 35.0258 -92.0203 290° West 187 215 6,100  Climbing Memphis Center
Sun 04:26:49 PM 35.0350 -92.0675 283° West 189 217 6,000 -97 Descending Memphis Center
Sun 04:27:05 PM 35.0419 -92.0800 304° West 186 214 6,000 100 Level Memphis Center
Sun 04:27:49 PM 35.0503 -92.1300 282° West 184 212 6,100 97 Climbing Memphis Center
Sun 04:28:07 PM 35.0542 -92.1411 293° West 186 214 6,100 -98 Level Memphis Center
Sun 04:28:50 PM 35.0653 -92.1875 286° West 184 212 6,000  Descending Memphis Center
Sun 04:29:51 PM 35.0806 -92.2475 287° West 184 212 6,100  Climbing Memphis Center
Sun 04:30:11 PM 35.0842 -92.2606 289° West 186 214 6,000 -73 Descending Memphis Center
Sun 04:31:13 PM 35.1036 -92.3314 289° West 185 213 6,000  Level Memphis Center
Sun 04:32:16 PM 35.1222 -92.3897 291° West 185 213 6,000  Level Memphis Center
Sun 04:33:18 PM 35.1414 -92.4469 292° West 185 213 6,000  Level Memphis Center
Sun 04:34:20 PM 35.1594 -92.5022 292° West 183 211 6,000  Level Memphis Center
Sun 04:35:22 PM 35.1783 -92.5592 292° West 183 211 6,000  Level Memphis Center
Sun 04:36:24 PM 35.1964 -92.6150 292° West 182 209 6,000  Level Memphis Center
Sun 04:37:26 PM 35.2181 -92.6828 291° West 181 208 6,000 48 Level Memphis Center
Sun 04:38:28 PM 35.2364 -92.7394 292° West 181 208 6,100  Climbing Memphis Center
Sun 04:39:30 PM 35.2553 -92.7969 292° West 181 208 6,000  Descending Memphis Center
Sun 04:40:32 PM 35.2736 -92.8547 291° West 181 208 6,100  Climbing Memphis Center
Sun 04:41:35 PM 35.2922 -92.9106 292° West 181 208 6,000 -48 Descending Memphis Center
Sun 04:42:37 PM 35.3103 -92.9681 291° West 181 208 6,000 48 Level Memphis Center
Sun 04:43:39 PM 35.3297 -93.0250 293° West 181 208 6,100 48 Climbing Memphis Center
Sun 04:44:41 PM 35.3483 -93.0833 291° West 181 208 6,100 -48 Level Memphis Center
Sun 04:45:43 PM 35.3697 -93.1508 291° West 180 207 6,000  Descending Memphis Center
Sun 04:47:47 PM 35.4136 -93.2608 296° West 180 207 6,100 32 Climbing Memphis Center
Sun 04:48:49 PM 35.4267 -93.3203 285° West 180 207 6,100  Level Memphis Center
Sun 04:49:52 PM 35.4397 -93.3783 285° West 180 207 6,100  Level Memphis Center
Sun 04:50:54 PM 35.4581 -93.4342 292° West 180 207 6,100  Level Memphis Center
Sun 04:51:56 PM 35.4769 -93.4922 292° West 180 207 6,100  Level Memphis Center
Sun 04:54:31 PM 35.5222 -93.6406 291° West 179 206 6,100  Level Kansas City Center
Sun 04:55:02 PM 35.5322 -93.6742 290° West 179 206 6,100  Level Memphis Center
Sun 04:56:35 PM 35.5603 -93.7653 291° West 179 206 6,100  Level Kansas City Center
Sun 04:57:06 PM 35.5667 -93.7883 289° West 179 206 6,100  Level Memphis Center
Sun 04:58:09 PM 35.5892 -93.8581 292° West 179 206 6,100  Level Memphis Center
Sun 04:59:12 PM 35.6075 -93.9167 291° West 180 207 6,100  Level Memphis Center
Sun 05:00:14 PM 35.6275 -93.9742 293° West 180 207 6,100  Level Memphis Center
Sun 05:01:16 PM 35.6456 -94.0331 291° West 180 207 6,100  Level Memphis Center
Sun 05:02:18 PM 35.6636 -94.0928 290° West 181 208 6,100  Level Memphis Center
Sun 05:04:22 PM 35.7053 -94.2206 292° West 182 209 6,100  Level Memphis Center
Sun 05:05:24 PM 35.7222 -94.2789 290° West 181 208 6,100  Level Memphis Center
Sun 05:06:27 PM 35.7394 -94.3361 290° West 181 208 6,100  Level Memphis Center
Sun 05:07:29 PM 35.7575 -94.3942 291° West 181 208 6,100  Level Memphis Center
Sun 05:08:31 PM 35.7756 -94.4531 291° West 181 208 6,100  Level Memphis Center
Sun 05:09:33 PM 35.7925 -94.5114 290° West 181 208 6,100  Level Memphis Center
Sun 05:10:35 PM 35.8100 -94.5692 290° West 181 208 6,100  Level Memphis Center
Sun 05:11:37 PM 35.8314 -94.6394 291° West 181 208 6,100  Level Memphis Center
Sun 05:12:39 PM 35.8497 -94.6975 291° West 181 208 6,100  Level Memphis Center
Sun 05:13:41 PM 35.8664 -94.7561 289° West 181 208 6,100  Level Memphis Center
Sun 05:14:44 PM 35.8844 -94.8144 291° West 181 208 6,100 -39 Level Memphis Center
Sun 05:16:15 PM 35.9108 -94.9069 289° West 181 208 6,000  Descending Kansas City Center
Sun 05:16:48 PM 35.9194 -94.9317 293° West 181 208 6,100 63 Climbing Memphis Center
Sun 05:17:50 PM 35.9400 -95.0008 290° West 181 208 6,100 -97 Level Memphis Center
Sun 05:18:52 PM 35.9578 -95.0597 290° West 181 208 5,900 -48 Descending Memphis Center
Sun 05:19:54 PM 35.9753 -95.1206 290° West 182 209 6,000 48 Climbing Memphis Center
Sun 05:20:56 PM 35.9928 -95.1800 290° West 182 209 6,000  Level Memphis Center
Sun 05:21:58 PM 36.0111 -95.2403 291° West 183 211 6,000 45 Level Memphis Center
Sun 05:23:08 PM 36.0342 -95.3211 289° West 190 219 6,100  Climbing Kansas City Center
Sun 05:23:29 PM 36.0372 -95.3389 282° West 187 215 6,000  Descending Kansas City Center
Sun 05:24:09 PM 36.0500 -95.3808 291° West 186 214 6,100  Climbing Kansas City Center
Sun 05:24:32 PM 36.0553 -95.3983 290° West 186 214 6,000  Descending Kansas City Center
Sun 05:25:09 PM 36.0681 -95.4406 291° West 185 213 6,100 -97 Climbing Kansas City Center
Sun 05:25:34 PM 36.0731 -95.4589 289° West 186 214 5,900 -492 Descending Kansas City Center
Sun 05:26:10 PM 36.0881 -95.5000 294° West 189 217 5,600 -581 Descending Kansas City Center
Sun 05:26:36 PM 36.0922 -95.5219 283° West 188 216 5,300 -655 Descending Kansas City Center
Sun 05:27:05 PM 36.1036 -95.5572 292° West 194 223 5,000 -677 Descending Kansas City Center
Sun 05:27:38 PM 36.1100 -95.5853 286° West 190 219 4,600 -600 Descending Kansas City Center
Sun 05:28:05 PM 36.1236 -95.6192 296° West 198 228 4,400 -581 Descending Kansas City Center
Sun 05:28:40 PM 36.1325 -95.6481 291° West 193 222 4,000 -590 Descending Kansas City Center
Sun 05:29:06 PM 36.1483 -95.6858 297° West 194 223 3,800 -552 Descending Kansas City Center
Sun 05:30:07 PM 36.1625 -95.7511 285° West 198 228 3,200 -612 Descending Kansas City Center
Sun 05:30:44 PM 36.1733 -95.7881 290° West 195 224 2,800 -455 Descending Kansas City Center
Sun 05:31:13 PM 36.2003 -95.8006 339° North 205 236 2,700 -333 Descending Kansas City Center
Sun 05:31:56 PM 36.2333 -95.8169 338° Northwest 183 211 2,400 -275 Descending Kansas City Center
Sun 05:33:02 PM 36.2483 -95.8719 289° West 133 153 2,200 -368 Descending Kansas City Center
Sun 05:33:50 PM 36.2486 -95.9006 271° West 142 163 1,700 -649 Descending Kansas City Center
Sun 05:34:53 PM 36.2197 -95.9003 180° South 123 142 1,000 -667 Descending Kansas City Center

Login

Don't have an account? Register now (free) for customized features, flight alerts, and more!